Time;durP1;ratioP1;P1;durP2;ratioP2;P2;SDS_P1;SDS_P2;PMS_P1;PMS_P2;Temp;Humidity;BMP_temperature;BMP_pressure;BME280_temperature;BME280_humidity;BME280_pressure;Samples;Min_cycle;Max_cycle;Signal;HPM_P1;HPM_P2
2023/10/02 00:03:39;;;;;;;12.47;7.80;;;;;;;;;;5042042;28;20599;-81
2023/10/02 00:06:05;;;;;;;11.00;6.90;;;;;;;;;;5040854;28;20499;-81
2023/10/02 00:08:43;;;;;;;14.33;7.73;;;;;;;;;;5041928;28;20418;-82
2023/10/02 00:11:39;;;;;;;14.60;8.37;;;;;;;;;;5041824;28;20426;-81
2023/10/02 00:14:26;;;;;;;13.70;8.40;;;;;;;;;;5046639;28;20540;-81
2023/10/02 00:16:59;;;;;;;15.77;7.83;;;;;;;;;;5045769;28;20899;-80
2023/10/02 00:19:57;;;;;;;15.27;7.57;;;;;;;;;;5044409;28;20401;-81
2023/10/02 00:22:38;;;;;;;10.90;7.67;;;;;;;;;;5035697;28;21019;-86
2023/10/02 00:25:07;;;;;;;15.17;9.47;;;;;;;;;;5035614;28;20407;-81
2023/10/02 00:27:34;;;;;;;13.60;8.77;;;;;;;;;;5035767;28;20412;-84
2023/10/02 00:30:00;;;;;;;14.60;9.27;;;;;;;;;;5046530;28;20517;-81
2023/10/02 00:32:26;;;;;;;13.10;8.37;;;;;;;;;;5057779;28;20414;-81
2023/10/02 00:34:52;;;;;;;14.43;8.40;;;;;;;;;;5059359;28;20926;-81
2023/10/02 00:37:18;;;;;;;11.90;7.90;;;;;;;;;;5055443;28;20434;-81
2023/10/02 00:39:48;;;;;;;16.20;9.17;;;;;;;;;;5061930;28;20437;-83
2023/10/02 00:42:24;;;;;;;18.50;8.77;;;;;;;;;;5075319;28;20488;-81
2023/10/02 00:44:54;;;;;;;17.47;9.10;;;;;;;;;;5075431;28;20483;-81
2023/10/02 00:50:07;;;;;;;16.53;9.30;;;;;;;;;;5075322;28;20445;-85
2023/10/02 00:52:33;;;;;;;13.23;7.87;;;;;;;;;;5057275;28;20924;-83
2023/10/02 00:55:05;;;;;;;12.70;7.80;;;;;;;;;;5074787;28;20481;-82
2023/10/02 00:57:35;;;;;;;14.30;8.43;;;;;;;;;;5075205;28;20437;-81
2023/10/02 01:00:05;;;;;;;13.30;8.13;;;;;;;;;;5074902;28;20514;-82
2023/10/02 01:02:31;;;;;;;15.63;8.20;;;;;;;;;;5053914;28;20476;-82
2023/10/02 01:04:57;;;;;;;12.93;7.60;;;;;;;;;;5056645;28;20433;-81
2023/10/02 01:07:23;;;;;;;13.10;7.83;;;;;;;;;;5071412;28;20282;-82
2023/10/02 01:10:08;;;;;;;15.10;8.60;;;;;;;;;;5054533;28;20918;-83
2023/10/02 01:12:43;;;;;;;10.20;6.57;;;;;;;;;;5065115;28;20180;-83
2023/10/02 01:15:12;;;;;;;15.23;9.87;;;;;;;;;;5074888;28;20453;-82
2023/10/02 01:17:40;;;;;;;15.20;9.30;;;;;;;;;;5074801;28;20416;-82
2023/10/02 01:20:20;;;;;;;13.83;8.10;;;;;;;;;;5056738;28;20529;-84
2023/10/02 01:22:51;;;;;;;14.07;8.40;;;;;;;;;;5053999;28;20512;-82
2023/10/02 01:25:23;;;;;;;16.57;9.80;;;;;;;;;;5038859;28;20432;-82
2023/10/02 01:27:56;;;;;;;20.20;9.37;;;;;;;;;;5058226;28;20474;-82
2023/10/02 01:30:23;;;;;;;14.60;8.90;;;;;;;;;;5057802;28;20772;-82
2023/10/02 01:33:06;;;;;;;14.40;9.50;;;;;;;;;;5060899;28;20415;-83
2023/10/02 01:35:33;;;;;;;16.67;9.97;;;;;;;;;;5038622;28;20406;-81
2023/10/02 01:37:59;;;;;;;11.80;7.73;;;;;;;;;;5054022;28;20410;-82
2023/10/02 01:40:33;;;;;;;15.97;9.13;;;;;;;;;;5054414;28;20481;-84
2023/10/02 01:43:12;;;;;;;14.40;9.90;;;;;;;;;;5052949;28;20993;-81
2023/10/02 01:45:42;;;;;;;15.90;10.17;;;;;;;;;;5052999;28;20411;-81
2023/10/02 01:48:08;;;;;;;15.33;9.13;;;;;;;;;;5054223;28;20853;-82
2023/10/02 01:50:36;;;;;;;14.30;8.90;;;;;;;;;;5054243;28;20795;-84
2023/10/02 01:53:07;;;;;;;14.20;8.63;;;;;;;;;;5052475;28;20432;-83
2023/10/02 01:55:35;;;;;;;14.53;8.93;;;;;;;;;;5052815;28;20411;-82
2023/10/02 01:58:16;;;;;;;15.40;10.10;;;;;;;;;;5053939;28;20504;-83
2023/10/02 02:00:42;;;;;;;15.17;9.43;;;;;;;;;;5053862;28;20485;-82
2023/10/02 02:03:14;;;;;;;16.07;9.60;;;;;;;;;;5053776;28;20474;-82
2023/10/02 02:05:44;;;;;;;12.73;8.90;;;;;;;;;;5053893;28;20431;-81
2023/10/02 02:08:21;;;;;;;17.57;9.03;;;;;;;;;;5053506;28;20430;-85
2023/10/02 02:10:48;;;;;;;11.97;7.73;;;;;;;;;;5052612;28;20777;-82
2023/10/02 02:13:14;;;;;;;14.07;8.80;;;;;;;;;;5053660;28;20428;-86
2023/10/02 02:15:51;;;;;;;13.60;8.87;;;;;;;;;;5053687;28;20479;-81
2023/10/02 02:18:19;;;;;;;10.70;7.33;;;;;;;;;;5053723;28;20442;-81
2023/10/02 02:21:02;;;;;;;13.23;8.60;;;;;;;;;;5053500;28;20439;-81
2023/10/02 02:23:31;;;;;;;17.43;10.10;;;;;;;;;;5053212;28;20470;-82
2023/10/02 02:25:57;;;;;;;13.37;7.80;;;;;;;;;;5053554;28;20914;-86
2023/10/02 02:28:23;;;;;;;12.77;8.10;;;;;;;;;;5053483;28;20500;-87
2023/10/02 02:30:49;;;;;;;11.57;7.83;;;;;;;;;;5052072;28;20174;-82
2023/10/02 02:33:16;;;;;;;13.63;8.27;;;;;;;;;;5051303;28;20485;-85
2023/10/02 02:35:44;;;;;;;14.37;9.00;;;;;;;;;;5053323;28;20200;-81
2023/10/02 02:38:16;;;;;;;12.20;6.87;;;;;;;;;;5053065;28;20422;-82
2023/10/02 02:40:42;;;;;;;13.07;7.53;;;;;;;;;;5053210;28;20847;-87
2023/10/02 02:43:13;;;;;;;12.00;7.37;;;;;;;;;;5044136;28;20481;-82
2023/10/02 02:45:39;;;;;;;15.07;8.80;;;;;;;;;;5041836;28;20418;-85
2023/10/02 02:48:10;;;;;;;14.43;9.27;;;;;;;;;;5046374;28;20477;-85
2023/10/02 02:50:43;;;;;;;14.00;8.10;;;;;;;;;;5044310;28;20422;-82
2023/10/02 02:53:22;;;;;;;13.10;7.83;;;;;;;;;;5051657;28;20409;-82
2023/10/02 02:56:17;;;;;;;15.40;8.10;;;;;;;;;;5052060;28;20401;-82
2023/10/02 02:58:48;;;;;;;12.40;7.33;;;;;;;;;;5051671;28;20417;-82
2023/10/02 03:01:23;;;;;;;13.87;9.50;;;;;;;;;;5052806;28;20511;-81
2023/10/02 03:03:49;;;;;;;13.00;8.50;;;;;;;;;;5051666;28;20568;-82
2023/10/02 03:06:17;;;;;;;16.07;9.73;;;;;;;;;;5051686;28;20414;-81
2023/10/02 03:08:44;;;;;;;16.70;9.90;;;;;;;;;;5052602;28;20412;-82
2023/10/02 03:11:10;;;;;;;11.60;8.17;;;;;;;;;;5052828;28;20404;-82
2023/10/02 03:13:39;;;;;;;16.37;9.53;;;;;;;;;;5052946;28;21068;-81
2023/10/02 03:16:16;;;;;;;13.93;8.20;;;;;;;;;;5050715;28;20427;-82
2023/10/02 03:18:44;;;;;;;17.70;11.10;;;;;;;;;;5052935;28;20625;-85
2023/10/02 03:21:24;;;;;;;13.60;9.40;;;;;;;;;;5051568;28;20506;-82
2023/10/02 03:23:53;;;;;;;14.80;9.37;;;;;;;;;;5051153;28;20616;-82
2023/10/02 03:29:11;;;;;;;15.60;9.93;;;;;;;;;;5052833;28;20550;-82
2023/10/02 03:31:43;;;;;;;15.03;9.20;;;;;;;;;;5052755;28;20412;-82
2023/10/02 03:36:59;;;;;;;14.27;8.90;;;;;;;;;;5052967;28;20415;-81
2023/10/02 03:42:13;;;;;;;15.07;8.40;;;;;;;;;;5052789;28;20460;-82
2023/10/02 03:44:40;;;;;;;13.47;9.33;;;;;;;;;;5053779;28;20453;-83
2023/10/02 03:47:06;;;;;;;14.73;7.73;;;;;;;;;;5056524;28;20415;-82
2023/10/02 03:49:35;;;;;;;14.97;9.77;;;;;;;;;;5056431;28;20425;-83
2023/10/02 03:52:01;;;;;;;18.00;10.47;;;;;;;;;;5056357;28;20444;-83
2023/10/02 03:54:29;;;;;;;19.13;11.00;;;;;;;;;;5056048;28;20487;-87
2023/10/02 03:56:55;;;;;;;15.20;9.40;;;;;;;;;;5056566;28;20425;-81
2023/10/02 03:59:26;;;;;;;15.63;9.53;;;;;;;;;;5056458;28;20411;-81
2023/10/02 04:01:53;;;;;;;16.73;9.30;;;;;;;;;;5056205;28;20832;-80
2023/10/02 04:04:19;;;;;;;17.30;10.33;;;;;;;;;;5071417;28;20427;-80
2023/10/02 04:06:47;;;;;;;15.93;10.27;;;;;;;;;;5054995;28;20462;-80
2023/10/02 04:09:23;;;;;;;12.80;8.10;;;;;;;;;;5055815;28;20399;-84
2023/10/02 04:11:50;;;;;;;16.63;9.93;;;;;;;;;;5056075;28;20415;-81
2023/10/02 04:14:31;;;;;;;17.27;8.80;;;;;;;;;;5056120;28;20435;-81
2023/10/02 04:17:21;;;;;;;12.90;8.30;;;;;;;;;;5056012;28;20415;-81
2023/10/02 04:19:51;;;;;;;15.27;10.70;;;;;;;;;;5055943;28;20950;-81
2023/10/02 04:22:27;;;;;;;15.77;8.20;;;;;;;;;;5055369;28;20458;-81
2023/10/02 04:24:58;;;;;;;12.90;8.67;;;;;;;;;;5055754;28;20772;-86
2023/10/02 04:27:25;;;;;;;18.47;10.40;;;;;;;;;;5055839;28;20492;-82
2023/10/02 04:32:35;;;;;;;15.83;9.03;;;;;;;;;;5055684;28;20438;-81
2023/10/02 04:35:03;;;;;;;17.50;8.37;;;;;;;;;;5055636;28;20464;-81
2023/10/02 04:37:31;;;;;;;18.00;10.70;;;;;;;;;;5055181;28;20471;-81
2023/10/02 04:45:20;;;;;;;15.53;9.80;;;;;;;;;;5055580;28;20409;-82
2023/10/02 04:47:48;;;;;;;20.10;9.77;;;;;;;;;;5055579;28;20537;-82
2023/10/02 04:52:56;;;;;;;13.40;9.17;;;;;;;;;;5055008;28;20571;-82
2023/10/02 04:55:32;;;;;;;16.50;9.97;;;;;;;;;;5055229;28;20506;-83
2023/10/02 04:58:09;;;;;;;16.90;9.20;;;;;;;;;;5054661;28;20408;-82
2023/10/02 05:00:35;;;;;;;12.87;9.87;;;;;;;;;;5054908;28;20551;-82
2023/10/02 05:03:24;;;;;;;13.53;9.07;;;;;;;;;;5055059;28;20560;-82
2023/10/02 05:05:53;;;;;;;13.60;8.50;;;;;;;;;;5055167;28;20894;-82
2023/10/02 05:08:21;;;;;;;17.33;10.17;;;;;;;;;;5054692;28;20503;-83
2023/10/02 05:10:52;;;;;;;19.23;9.60;;;;;;;;;;5055019;28;20407;-82
2023/10/02 05:16:12;;;;;;;16.60;9.40;;;;;;;;;;5055129;28;20406;-82
2023/10/02 05:18:44;;;;;;;18.90;8.70;;;;;;;;;;5053579;28;20993;-81
2023/10/02 05:21:10;;;;;;;17.30;10.80;;;;;;;;;;5054861;28;20408;-82
2023/10/02 05:23:36;;;;;;;20.03;10.13;;;;;;;;;;5054378;28;21036;-82
2023/10/02 05:26:04;;;;;;;14.57;8.20;;;;;;;;;;5054543;28;20442;-83
2023/10/02 05:28:42;;;;;;;13.80;7.87;;;;;;;;;;5054579;28;20424;-82
2023/10/02 05:31:08;;;;;;;11.87;8.20;;;;;;;;;;5054644;28;20489;-82
2023/10/02 05:33:37;;;;;;;12.43;7.60;;;;;;;;;;5054718;28;20410;-84
2023/10/02 05:36:09;;;;;;;13.10;8.07;;;;;;;;;;5054476;28;20940;-83
2023/10/02 05:38:37;;;;;;;14.57;8.93;;;;;;;;;;5052749;28;20931;-82
2023/10/02 05:41:11;;;;;;;14.70;10.00;;;;;;;;;;5052845;28;20423;-83
2023/10/02 05:43:55;;;;;;;15.33;10.10;;;;;;;;;;5054261;28;20535;-82
2023/10/02 05:46:22;;;;;;;13.67;7.63;;;;;;;;;;5054377;28;20767;-83
2023/10/02 05:49:00;;;;;;;13.93;7.93;;;;;;;;;;5054196;28;20496;-85
2023/10/02 05:51:45;;;;;;;13.90;8.73;;;;;;;;;;5054240;28;20505;-81
2023/10/02 05:54:11;;;;;;;13.57;8.63;;;;;;;;;;5053613;28;20503;-82
2023/10/02 05:56:37;;;;;;;19.63;10.50;;;;;;;;;;5054126;28;20506;-81
2023/10/02 05:59:05;;;;;;;12.57;7.90;;;;;;;;;;5054034;28;20410;-81
2023/10/02 06:01:34;;;;;;;16.53;9.90;;;;;;;;;;5053809;28;20229;-81
2023/10/02 06:04:00;;;;;;;18.87;10.30;;;;;;;;;;5053665;28;20469;-81
2023/10/02 06:06:31;;;;;;;15.00;9.70;;;;;;;;;;5053728;28;20422;-81
2023/10/02 06:09:12;;;;;;;16.77;9.10;;;;;;;;;;5051181;28;20812;-82
2023/10/02 06:11:59;;;;;;;13.80;9.43;;;;;;;;;;5053898;28;20421;-81
2023/10/02 06:14:25;;;;;;;14.73;8.90;;;;;;;;;;5053462;28;20393;-82
2023/10/02 06:16:52;;;;;;;13.70;9.00;;;;;;;;;;5053514;28;20409;-82
2023/10/02 06:19:19;;;;;;;13.63;8.70;;;;;;;;;;5053440;28;20418;-82
2023/10/02 06:22:09;;;;;;;16.97;9.40;;;;;;;;;;5053453;28;20409;-81
2023/10/02 06:24:34;;;;;;;19.80;10.17;;;;;;;;;;5052682;28;20421;-81
2023/10/02 06:27:17;;;;;;;13.50;9.60;;;;;;;;;;5053282;28;20422;-80
2023/10/02 06:29:44;;;;;;;13.57;8.40;;;;;;;;;;5053399;28;20498;-82
2023/10/02 06:32:19;;;;;;;11.33;6.77;;;;;;;;;;5053460;28;20419;-82
2023/10/02 06:34:45;;;;;;;14.10;7.73;;;;;;;;;;5053468;28;20769;-85
2023/10/02 06:37:19;;;;;;;18.53;9.20;;;;;;;;;;5052939;28;21389;-82
2023/10/02 06:40:02;;;;;;;17.77;9.67;;;;;;;;;;5052150;28;20432;-82
2023/10/02 06:42:28;;;;;;;20.53;8.80;;;;;;;;;;5052536;28;20821;-81
2023/10/02 06:44:54;;;;;;;14.50;8.90;;;;;;;;;;5051360;28;20423;-82
2023/10/02 06:47:21;;;;;;;13.73;8.27;;;;;;;;;;5052991;28;20881;-82
2023/10/02 06:49:48;;;;;;;13.37;8.20;;;;;;;;;;5053068;28;20472;-81
2023/10/02 06:52:17;;;;;;;17.77;9.47;;;;;;;;;;5052660;28;20408;-81
2023/10/02 06:54:48;;;;;;;15.43;9.67;;;;;;;;;;5051752;28;20431;-82
2023/10/02 06:57:15;;;;;;;16.07;9.90;;;;;;;;;;5052970;28;20434;-82
2023/10/02 06:59:51;;;;;;;16.13;8.63;;;;;;;;;;5051243;28;20465;-83
2023/10/02 07:02:17;;;;;;;15.77;8.60;;;;;;;;;;5052763;28;20946;-82
2023/10/02 07:04:44;;;;;;;13.83;8.50;;;;;;;;;;5052704;28;20485;-82
2023/10/02 07:07:12;;;;;;;14.80;7.73;;;;;;;;;;5030608;28;20445;-82
2023/10/02 07:09:39;;;;;;;12.07;7.87;;;;;;;;;;5032890;28;20829;-81
2023/10/02 07:12:09;;;;;;;9.87;7.20;;;;;;;;;;5032824;28;20412;-81
2023/10/02 07:14:38;;;;;;;14.03;8.33;;;;;;;;;;5032800;28;20944;-81
2023/10/02 07:17:16;;;;;;;15.17;9.00;;;;;;;;;;5032650;28;20933;-80
2023/10/02 07:19:48;;;;;;;16.53;9.33;;;;;;;;;;5034035;28;20415;-81
2023/10/02 07:22:16;;;;;;;15.30;8.73;;;;;;;;;;5036585;28;20460;-80
2023/10/02 07:24:42;;;;;;;14.50;8.60;;;;;;;;;;5036841;28;20777;-80
2023/10/02 07:27:22;;;;;;;13.93;8.73;;;;;;;;;;5036861;28;20907;-84
2023/10/02 07:29:51;;;;;;;13.50;7.90;;;;;;;;;;5036933;28;20804;-81
2023/10/02 07:32:18;;;;;;;14.40;8.40;;;;;;;;;;5035268;28;20491;-81
2023/10/02 07:34:45;;;;;;;16.80;8.67;;;;;;;;;;5036866;28;20425;-82
2023/10/02 07:37:13;;;;;;;12.17;7.90;;;;;;;;;;5036295;28;20505;-82
2023/10/02 07:39:39;;;;;;;15.73;7.60;;;;;;;;;;5035430;28;20414;-82
2023/10/02 07:42:09;;;;;;;12.57;8.03;;;;;;;;;;5036570;28;20427;-82
2023/10/02 07:44:38;;;;;;;13.47;7.87;;;;;;;;;;5036665;28;20450;-82
2023/10/02 07:47:10;;;;;;;13.23;8.47;;;;;;;;;;5036403;28;20421;-80
2023/10/02 07:49:37;;;;;;;16.87;9.00;;;;;;;;;;5036516;28;20426;-82
2023/10/02 07:52:06;;;;;;;11.90;8.73;;;;;;;;;;5035944;28;21074;-80
2023/10/02 07:54:44;;;;;;;11.80;7.77;;;;;;;;;;5036356;28;20506;-81
2023/10/02 07:57:13;;;;;;;13.50;8.43;;;;;;;;;;5035894;28;20436;-80
2023/10/02 07:59:43;;;;;;;17.70;9.07;;;;;;;;;;5035904;28;20504;-82
2023/10/02 08:02:21;;;;;;;11.33;7.87;;;;;;;;;;5035930;28;20501;-80
2023/10/02 08:04:48;;;;;;;12.40;8.77;;;;;;;;;;5036245;28;20407;-83
2023/10/02 08:07:14;;;;;;;14.40;8.43;;;;;;;;;;5035781;28;20428;-80
2023/10/02 08:09:47;;;;;;;13.40;8.17;;;;;;;;;;5036192;28;20444;-81
2023/10/02 08:12:29;;;;;;;12.87;8.13;;;;;;;;;;5036144;28;20401;-83
2023/10/02 08:14:57;;;;;;;13.70;8.73;;;;;;;;;;5035901;28;20397;-83
2023/10/02 08:17:27;;;;;;;11.70;8.30;;;;;;;;;;5035927;28;20417;-82
2023/10/02 08:19:54;;;;;;;12.90;8.87;;;;;;;;;;5035985;28;20397;-81
2023/10/02 08:22:23;;;;;;;14.57;8.23;;;;;;;;;;5035415;28;20460;-81
2023/10/02 08:24:50;;;;;;;11.20;7.57;;;;;;;;;;5035915;28;20409;-80
2023/10/02 08:27:16;;;;;;;11.80;8.40;;;;;;;;;;5035876;28;20405;-83
2023/10/02 08:29:44;;;;;;;11.20;8.10;;;;;;;;;;5035771;28;20551;-82
2023/10/02 08:32:10;;;;;;;11.83;9.00;;;;;;;;;;5034597;28;20646;-83
2023/10/02 08:34:36;;;;;;;13.30;9.57;;;;;;;;;;5035691;28;20507;-82
2023/10/02 08:37:07;;;;;;;13.70;7.97;;;;;;;;;;5035146;28;20409;-81
2023/10/02 08:39:33;;;;;;;12.43;9.03;;;;;;;;;;5035634;28;20437;-84
2023/10/02 08:41:59;;;;;;;12.20;8.10;;;;;;;;;;5035484;28;20405;-83
2023/10/02 08:44:25;;;;;;;12.40;9.30;;;;;;;;;;5035496;28;20428;-85
2023/10/02 08:46:55;;;;;;;17.00;9.30;;;;;;;;;;5035437;28;20409;-83
2023/10/02 08:49:25;;;;;;;11.20;8.07;;;;;;;;;;5035353;28;20429;-82
2023/10/02 08:51:52;;;;;;;11.87;8.63;;;;;;;;;;5034910;28;20471;-81
2023/10/02 08:54:18;;;;;;;11.73;8.80;;;;;;;;;;5035382;28;20441;-83
2023/10/02 08:56:44;;;;;;;13.30;8.30;;;;;;;;;;5035158;28;20753;-81
2023/10/02 08:59:16;;;;;;;14.00;9.10;;;;;;;;;;5036972;28;20427;-82
2023/10/02 09:01:41;;;;;;;10.77;8.20;;;;;;;;;;5053939;28;20466;-82
2023/10/02 09:04:28;;;;;;;13.03;9.23;;;;;;;;;;5047942;28;20485;-84
2023/10/02 09:10:26;;;;;;;13.90;8.47;;;;;;;;;;4992685;28;20442;-84
2023/10/02 09:13:14;;;;;;;12.60;8.03;;;;;;;;;;5047511;28;20400;-83
2023/10/02 09:15:44;;;;;;;12.83;7.93;;;;;;;;;;5052502;28;20431;-84
2023/10/02 09:18:22;;;;;;;12.40;8.40;;;;;;;;;;5054157;28;20397;-82
2023/10/02 09:21:13;;;;;;;15.47;8.87;;;;;;;;;;5053056;28;20505;-81
2023/10/02 09:23:49;;;;;;;17.60;10.53;;;;;;;;;;5053175;28;20472;-83
2023/10/02 09:26:23;;;;;;;12.70;8.50;;;;;;;;;;5053457;28;20909;-81
2023/10/02 09:29:06;;;;;;;13.50;9.70;;;;;;;;;;5069305;28;20788;-81
2023/10/02 09:31:34;;;;;;;12.57;8.53;;;;;;;;;;5054612;28;20781;-81
2023/10/02 09:34:10;;;;;;;12.97;9.00;;;;;;;;;;5054417;28;20930;-82
2023/10/02 09:36:47;;;;;;;14.30;8.73;;;;;;;;;;5052697;28;20419;-85
2023/10/02 09:39:32;;;;;;;11.43;8.20;;;;;;;;;;5054443;28;20408;-85
2023/10/02 09:42:06;;;;;;;12.97;8.77;;;;;;;;;;5054073;28;20400;-81
2023/10/02 09:44:52;;;;;;;12.30;7.90;;;;;;;;;;5054339;28;20405;-81
2023/10/02 09:47:25;;;;;;;15.83;9.07;;;;;;;;;;5054317;28;20779;-85
2023/10/02 09:50:10;;;;;;;10.43;7.73;;;;;;;;;;5054356;28;20825;-85
2023/10/02 09:52:39;;;;;;;14.63;9.53;;;;;;;;;;5054017;28;20415;-85
2023/10/02 09:55:12;;;;;;;14.93;9.80;;;;;;;;;;5054110;28;20490;-81
2023/10/02 09:57:48;;;;;;;11.97;9.33;;;;;;;;;;5054054;28;20883;-82
2023/10/02 10:00:34;;;;;;;11.90;7.93;;;;;;;;;;5052578;28;20471;-84
2023/10/02 10:03:22;;;;;;;14.37;8.80;;;;;;;;;;5052687;28;20483;-81
2023/10/02 10:06:08;;;;;;;13.57;9.60;;;;;;;;;;5053804;28;20435;-82
2023/10/02 10:09:20;;;;;;;13.70;9.63;;;;;;;;;;5042851;28;20423;-81
2023/10/02 10:12:21;;;;;;;11.00;8.90;;;;;;;;;;5053526;28;20527;-81
2023/10/02 10:14:54;;;;;;;14.83;9.57;;;;;;;;;;5053501;28;20806;-85
2023/10/02 10:17:21;;;;;;;10.20;9.07;;;;;;;;;;5047457;28;20404;-83
2023/10/02 10:20:08;;;;;;;12.90;8.73;;;;;;;;;;5051031;28;20412;-81
2023/10/02 10:22:50;;;;;;;12.73;7.77;;;;;;;;;;5053281;28;20459;-81
2023/10/02 10:25:22;;;;;;;12.70;8.50;;;;;;;;;;5052271;28;20868;-82
2023/10/02 10:27:54;;;;;;;11.43;8.53;;;;;;;;;;5053523;28;20459;-81
2023/10/02 10:35:55;;;;;;;10.90;8.00;;;;;;;;;;5053379;28;20412;-80
2023/10/02 10:41:09;;;;;;;11.20;8.70;;;;;;;;;;5053282;28;20462;-83
2023/10/02 10:43:44;;;;;;;11.03;8.07;;;;;;;;;;5053115;28;20499;-86
2023/10/02 10:46:28;;;;;;;11.53;7.90;;;;;;;;;;5053226;28;20876;-81
2023/10/02 10:48:59;;;;;;;10.37;7.93;;;;;;;;;;5053198;28;20403;-82
2023/10/02 10:51:27;;;;;;;11.50;8.43;;;;;;;;;;5051408;28;20451;-83
2023/10/02 10:54:00;;;;;;;15.23;7.80;;;;;;;;;;5052617;28;20417;-81
2023/10/02 10:56:27;;;;;;;9.97;8.07;;;;;;;;;;5053075;28;20412;-81
2023/10/02 10:59:02;;;;;;;10.20;7.67;;;;;;;;;;5051613;28;20608;-84
2023/10/02 11:01:28;;;;;;;10.50;7.63;;;;;;;;;;5052820;28;21011;-82
2023/10/02 11:04:01;;;;;;;11.60;8.63;;;;;;;;;;5052863;28;20562;-84
2023/10/02 11:06:28;;;;;;;10.50;8.00;;;;;;;;;;5052592;28;20184;-84
2023/10/02 11:09:11;;;;;;;10.77;7.17;;;;;;;;;;5052784;28;20454;-81
2023/10/02 11:11:49;;;;;;;11.53;8.50;;;;;;;;;;5052932;28;20913;-83
2023/10/02 11:14:20;;;;;;;12.53;8.57;;;;;;;;;;5052881;28;20399;-84
2023/10/02 11:16:50;;;;;;;10.83;8.40;;;;;;;;;;5052932;28;20832;-83
2023/10/02 11:22:01;;;;;;;10.77;7.10;;;;;;;;;;5052480;28;20447;-84
2023/10/02 11:24:28;;;;;;;9.87;7.27;;;;;;;;;;5051339;28;20436;-82
2023/10/02 11:27:04;;;;;;;9.60;7.77;;;;;;;;;;5052869;28;20400;-81
2023/10/02 11:29:42;;;;;;;10.27;6.83;;;;;;;;;;5052794;28;20423;-85
2023/10/02 11:32:22;;;;;;;9.20;6.90;;;;;;;;;;5052770;28;20411;-84
2023/10/02 11:34:58;;;;;;;11.73;7.00;;;;;;;;;;5052718;28;20408;-82
2023/10/02 11:37:24;;;;;;;9.50;6.50;;;;;;;;;;5052429;28;20462;-84
2023/10/02 11:39:50;;;;;;;10.40;7.20;;;;;;;;;;5052452;28;20439;-84
2023/10/02 11:42:20;;;;;;;9.03;6.80;;;;;;;;;;5050989;28;20519;-85
2023/10/02 11:44:46;;;;;;;9.40;6.50;;;;;;;;;;5051812;28;20185;-83
2023/10/02 11:47:13;;;;;;;10.70;7.07;;;;;;;;;;5050588;28;20786;-85
2023/10/02 11:49:39;;;;;;;10.87;6.97;;;;;;;;;;5050844;28;20428;-84
2023/10/02 11:52:06;;;;;;;10.00;7.40;;;;;;;;;;5052139;28;20524;-82
2023/10/02 11:54:39;;;;;;;8.87;6.10;;;;;;;;;;5052437;28;20803;-81
2023/10/02 11:57:08;;;;;;;11.00;6.73;;;;;;;;;;5052366;28;20404;-82
2023/10/02 11:59:34;;;;;;;10.57;7.13;;;;;;;;;;5052131;28;20415;-85
2023/10/02 12:02:00;;;;;;;10.73;6.73;;;;;;;;;;5052241;28;20443;-83
2023/10/02 12:04:26;;;;;;;8.33;6.30;;;;;;;;;;5052164;28;20553;-83
2023/10/02 12:06:54;;;;;;;10.13;6.03;;;;;;;;;;5055033;28;20166;-81
2023/10/02 12:09:23;;;;;;;6.90;6.20;;;;;;;;;;5055972;28;20173;-82
2023/10/02 12:11:49;;;;;;;7.90;5.60;;;;;;;;;;5055996;28;20779;-82
2023/10/02 12:14:15;;;;;;;9.63;5.83;;;;;;;;;;5055944;28;20419;-84
2023/10/02 12:16:41;;;;;;;10.67;6.80;;;;;;;;;;5055980;28;20178;-85
2023/10/02 12:19:10;;;;;;;10.13;6.53;;;;;;;;;;5051530;28;20181;-83
2023/10/02 12:21:36;;;;;;;11.00;6.63;;;;;;;;;;5045571;28;20435;-84
2023/10/02 12:24:03;;;;;;;7.53;5.80;;;;;;;;;;5043962;28;20464;-84
2023/10/02 12:26:30;;;;;;;7.93;5.33;;;;;;;;;;5045507;28;20412;-80
2023/10/02 12:28:56;;;;;;;8.83;5.90;;;;;;;;;;5045842;28;20834;-80
2023/10/02 12:31:23;;;;;;;10.60;7.67;;;;;;;;;;5040995;28;20446;-81
2023/10/02 12:33:56;;;;;;;11.73;6.80;;;;;;;;;;5037380;28;20209;-81
2023/10/02 12:36:23;;;;;;;12.03;7.27;;;;;;;;;;5055390;28;20496;-80
2023/10/02 12:38:52;;;;;;;10.23;6.37;;;;;;;;;;5055588;28;20404;-81
2023/10/02 12:41:20;;;;;;;9.67;6.30;;;;;;;;;;5055609;28;20474;-80
2023/10/02 12:43:47;;;;;;;13.70;7.67;;;;;;;;;;5055365;28;20476;-82
2023/10/02 12:46:16;;;;;;;10.33;7.03;;;;;;;;;;5053832;28;20442;-84
2023/10/02 12:48:48;;;;;;;10.07;6.80;;;;;;;;;;5055293;28;20810;-81
2023/10/02 12:51:14;;;;;;;12.53;8.27;;;;;;;;;;5054968;28;20416;-81
2023/10/02 12:53:40;;;;;;;10.23;6.47;;;;;;;;;;5055271;28;20909;-84
2023/10/02 12:56:07;;;;;;;13.73;7.37;;;;;;;;;;5055260;28;20415;-84
2023/10/02 12:58:33;;;;;;;10.97;6.50;;;;;;;;;;5055188;28;20413;-80
2023/10/02 13:01:05;;;;;;;9.60;6.43;;;;;;;;;;5054827;28;20468;-80
2023/10/02 13:03:32;;;;;;;11.20;7.60;;;;;;;;;;5055074;28;20467;-84
2023/10/02 13:06:03;;;;;;;9.70;6.50;;;;;;;;;;5053351;28;20495;-81
2023/10/02 13:08:29;;;;;;;10.70;7.23;;;;;;;;;;5054987;28;20470;-80
2023/10/02 13:10:55;;;;;;;14.00;7.37;;;;;;;;;;5055027;28;20411;-84
2023/10/02 13:13:21;;;;;;;13.93;8.07;;;;;;;;;;5054847;28;20412;-81
2023/10/02 13:15:51;;;;;;;11.70;6.73;;;;;;;;;;5054912;28;20519;-80
2023/10/02 13:18:17;;;;;;;17.50;8.53;;;;;;;;;;5054381;28;20174;-83
2023/10/02 13:20:44;;;;;;;14.13;8.27;;;;;;;;;;5055042;28;20392;-81
2023/10/02 13:23:12;;;;;;;13.80;7.67;;;;;;;;;;5053466;28;20876;-82
2023/10/02 13:25:39;;;;;;;12.23;7.70;;;;;;;;;;5054833;28;20507;-81
2023/10/02 13:28:05;;;;;;;11.47;7.27;;;;;;;;;;5054885;28;20408;-83
2023/10/02 13:30:31;;;;;;;13.80;7.63;;;;;;;;;;5054853;28;20404;-80
2023/10/02 13:32:57;;;;;;;14.80;8.63;;;;;;;;;;5055034;28;20485;-80
2023/10/02 13:35:23;;;;;;;13.63;7.77;;;;;;;;;;5054968;28;20431;-82
2023/10/02 13:37:52;;;;;;;11.80;7.27;;;;;;;;;;5054426;28;20431;-80
2023/10/02 13:40:31;;;;;;;11.97;7.20;;;;;;;;;;5054657;28;20968;-84
2023/10/02 13:42:58;;;;;;;11.93;8.00;;;;;;;;;;5054367;28;20459;-81
2023/10/02 13:45:24;;;;;;;12.93;7.53;;;;;;;;;;5054365;28;20787;-82
2023/10/02 13:47:54;;;;;;;12.30;8.23;;;;;;;;;;5054134;28;20401;-84
2023/10/02 13:50:21;;;;;;;13.63;8.10;;;;;;;;;;5054088;28;20424;-80
2023/10/02 13:52:51;;;;;;;13.60;8.50;;;;;;;;;;5053866;28;21146;-80
2023/10/02 13:55:19;;;;;;;12.77;8.93;;;;;;;;;;5054168;28;20404;-80
2023/10/02 13:57:46;;;;;;;12.97;7.63;;;;;;;;;;5057779;28;20438;-81
2023/10/02 14:00:13;;;;;;;15.53;9.00;;;;;;;;;;5039117;28;20467;-83
2023/10/02 14:02:40;;;;;;;13.73;7.57;;;;;;;;;;5041517;28;20515;-84
2023/10/02 14:05:07;;;;;;;10.67;7.57;;;;;;;;;;5033662;28;20435;-85
2023/10/02 14:07:36;;;;;;;13.83;8.30;;;;;;;;;;5033150;28;20967;-80
2023/10/02 14:10:03;;;;;;;20.23;9.53;;;;;;;;;;5033547;28;20420;-83
2023/10/02 14:12:30;;;;;;;13.80;9.10;;;;;;;;;;5035264;28;20512;-83
2023/10/02 14:14:56;;;;;;;14.80;8.10;;;;;;;;;;5053428;28;20810;-79
2023/10/02 14:17:22;;;;;;;15.07;8.90;;;;;;;;;;5048455;28;20454;-81
2023/10/02 14:19:48;;;;;;;11.27;6.67;;;;;;;;;;5053331;28;20169;-84
2023/10/02 14:22:14;;;;;;;13.40;7.80;;;;;;;;;;5052771;28;20198;-84
2023/10/02 14:24:40;;;;;;;14.70;7.67;;;;;;;;;;5053214;28;20447;-80
2023/10/02 14:27:06;;;;;;;14.73;8.20;;;;;;;;;;5046823;28;20174;-79
2023/10/02 14:29:31;;;;;;;16.70;7.97;;;;;;;;;;5032398;28;20574;-80
2023/10/02 14:31:57;;;;;;;11.00;7.37;;;;;;;;;;5048670;28;20784;-80
2023/10/02 14:34:23;;;;;;;11.07;7.10;;;;;;;;;;5051750;28;20178;-80
2023/10/02 14:36:50;;;;;;;11.10;7.77;;;;;;;;;;5049343;28;20229;-81
2023/10/02 14:39:16;;;;;;;12.57;7.93;;;;;;;;;;5049006;28;20432;-80
2023/10/02 14:41:43;;;;;;;13.90;8.77;;;;;;;;;;5053698;28;20404;-80
2023/10/02 14:44:10;;;;;;;12.70;8.20;;;;;;;;;;5067819;28;20608;-81
2023/10/02 14:46:39;;;;;;;15.07;8.50;;;;;;;;;;5053254;28;20427;-80
2023/10/02 14:49:07;;;;;;;12.87;7.40;;;;;;;;;;5052943;28;20408;-81
2023/10/02 14:51:32;;;;;;;13.27;9.07;;;;;;;;;;5052640;28;20432;-78
2023/10/02 14:54:02;;;;;;;15.67;8.50;;;;;;;;;;5053039;28;20866;-80
2023/10/02 14:56:28;;;;;;;13.07;8.17;;;;;;;;;;5052742;28;20184;-80
2023/10/02 14:58:54;;;;;;;10.80;7.93;;;;;;;;;;5051393;28;20495;-79
2023/10/02 15:01:20;;;;;;;13.40;7.60;;;;;;;;;;5051035;28;20638;-80
2023/10/02 15:03:47;;;;;;;12.67;7.83;;;;;;;;;;5052642;28;20755;-80
2023/10/02 15:06:13;;;;;;;13.53;8.23;;;;;;;;;;5052422;28;20559;-80
2023/10/02 15:08:45;;;;;;;15.77;8.70;;;;;;;;;;5051190;28;20541;-80
2023/10/02 15:11:14;;;;;;;11.50;8.20;;;;;;;;;;5052770;28;20408;-80
2023/10/02 15:13:40;;;;;;;14.00;7.53;;;;;;;;;;5052500;28;20757;-80
2023/10/02 15:16:14;;;;;;;14.80;7.93;;;;;;;;;;5051107;28;20935;-80
2023/10/02 15:18:41;;;;;;;13.60;8.43;;;;;;;;;;5052715;28;20430;-81
2023/10/02 15:21:10;;;;;;;13.93;7.87;;;;;;;;;;5050877;28;20904;-80
2023/10/02 15:23:37;;;;;;;12.23;8.07;;;;;;;;;;5052527;28;20471;-80
2023/10/02 15:26:03;;;;;;;12.43;7.93;;;;;;;;;;5052593;28;20503;-80
2023/10/02 15:28:29;;;;;;;13.93;8.60;;;;;;;;;;5052520;28;20466;-80
2023/10/02 15:30:55;;;;;;;12.80;8.37;;;;;;;;;;5051416;28;20419;-80
2023/10/02 15:33:24;;;;;;;12.80;7.63;;;;;;;;;;5052422;28;20181;-80